Terminal Aerodrome Forecast
Issued by NWS

Home | Current Version | Previous Version | Text Only | Print | Product List | Glossary On
Versions: 1 2 3 4 5 6 7 8 9 10 11 12 13 14 15 16 17
751
FTUS43 KAPX 170520
TAFAPN
TAF
KAPN 170520Z 1706/1806 VRB03KT P6SM BKN250
     FM170800 10004KT P6SM OVC050
     FM171000 09005KT 3SM -FZRAPL OVC015
     FM171400 07008KT 2SM -FZRAPL OVC003
     FM171600 06009KT 1 1/2SM FZRA OVC003
     FM171800 06009KT 3SM -RA BR OVC003
     FM180000 02005KT 5SM BR OVC007=

USA.gov is the U.S. government's official web portal to all federal, state and local government web resources and services.